sensor_id;sensor_type;location;lat;lon;timestamp;P1;durP1;ratioP1;P2;durP2;ratioP2
36827;SDS011;22766;48.042;11.192;2022-09-06T00:02:17;4.30;;;1.98;;
36827;SDS011;22766;48.042;11.192;2022-09-06T00:04:45;3.25;;;1.85;;
36827;SDS011;22766;48.042;11.192;2022-09-06T00:07:13;2.72;;;1.70;;
36827;SDS011;22766;48.042;11.192;2022-09-06T00:09:40;4.25;;;1.75;;
36827;SDS011;22766;48.042;11.192;2022-09-06T00:12:06;4.38;;;1.95;;
36827;SDS011;22766;48.042;11.192;2022-09-06T00:14:33;4.75;;;2.10;;
36827;SDS011;22766;48.042;11.192;2022-09-06T00:17:00;6.15;;;1.75;;
36827;SDS011;22766;48.042;11.192;2022-09-06T00:19:26;7.90;;;1.88;;
36827;SDS011;22766;48.042;11.192;2022-09-06T00:21:53;2.78;;;1.80;;
36827;SDS011;22766;48.042;11.192;2022-09-06T00:24:20;3.72;;;1.70;;
36827;SDS011;22766;48.042;11.192;2022-09-06T00:26:46;2.67;;;1.83;;
36827;SDS011;22766;48.042;11.192;2022-09-06T00:29:13;2.58;;;1.88;;
36827;SDS011;22766;48.042;11.192;2022-09-06T00:31:40;4.20;;;1.30;;
36827;SDS011;22766;48.042;11.192;2022-09-06T00:34:06;3.30;;;1.63;;
36827;SDS011;22766;48.042;11.192;2022-09-06T00:36:33;2.45;;;1.55;;
36827;SDS011;22766;48.042;11.192;2022-09-06T00:39:00;2.03;;;1.70;;
36827;SDS011;22766;48.042;11.192;2022-09-06T00:41:27;7.22;;;1.50;;
36827;SDS011;22766;48.042;11.192;2022-09-06T00:43:54;2.85;;;1.67;;
36827;SDS011;22766;48.042;11.192;2022-09-06T00:46:22;2.28;;;1.70;;
36827;SDS011;22766;48.042;11.192;2022-09-06T00:48:57;4.90;;;1.58;;
36827;SDS011;22766;48.042;11.192;2022-09-06T00:51:28;2.63;;;1.60;;
36827;SDS011;22766;48.042;11.192;2022-09-06T00:53:56;4.55;;;2.05;;
36827;SDS011;22766;48.042;11.192;2022-09-06T00:56:23;2.80;;;1.77;;
36827;SDS011;22766;48.042;11.192;2022-09-06T00:58:51;2.83;;;1.65;;
36827;SDS011;22766;48.042;11.192;2022-09-06T01:01:18;2.88;;;1.70;;
36827;SDS011;22766;48.042;11.192;2022-09-06T01:03:45;4.47;;;2.05;;
36827;SDS011;22766;48.042;11.192;2022-09-06T01:17:30;2.08;;;1.67;;
36827;SDS011;22766;48.042;11.192;2022-09-06T01:28:40;2.88;;;1.80;;
36827;SDS011;22766;48.042;11.192;2022-09-06T01:39:25;3.25;;;1.98;;
36827;SDS011;22766;48.042;11.192;2022-09-06T01:41:55;3.30;;;1.75;;
36827;SDS011;22766;48.042;11.192;2022-09-06T01:44:23;2.85;;;1.73;;
36827;SDS011;22766;48.042;11.192;2022-09-06T02:06:48;3.17;;;2.03;;
36827;SDS011;22766;48.042;11.192;2022-09-06T02:09:21;2.78;;;1.80;;
36827;SDS011;22766;48.042;11.192;2022-09-06T02:11:51;3.65;;;2.15;;
36827;SDS011;22766;48.042;11.192;2022-09-06T02:16:55;2.97;;;2.10;;
36827;SDS011;22766;48.042;11.192;2022-09-06T02:19:38;3.30;;;1.90;;
36827;SDS011;22766;48.042;11.192;2022-09-06T02:22:11;3.28;;;2.20;;
36827;SDS011;22766;48.042;11.192;2022-09-06T02:24:42;2.85;;;1.95;;
36827;SDS011;22766;48.042;11.192;2022-09-06T02:27:12;3.72;;;2.25;;
36827;SDS011;22766;48.042;11.192;2022-09-06T02:29:40;5.45;;;2.20;;
36827;SDS011;22766;48.042;11.192;2022-09-06T02:32:10;4.63;;;2.15;;
36827;SDS011;22766;48.042;11.192;2022-09-06T02:34:41;2.90;;;1.35;;
36827;SDS011;22766;48.042;11.192;2022-09-06T02:37:09;2.00;;;1.48;;
36827;SDS011;22766;48.042;11.192;2022-09-06T02:39:38;3.13;;;2.03;;
36827;SDS011;22766;48.042;11.192;2022-09-06T02:42:05;3.08;;;1.98;;
36827;SDS011;22766;48.042;11.192;2022-09-06T02:44:35;2.88;;;1.67;;
36827;SDS011;22766;48.042;11.192;2022-09-06T02:47:02;2.65;;;1.67;;
36827;SDS011;22766;48.042;11.192;2022-09-06T02:49:29;3.33;;;1.75;;
36827;SDS011;22766;48.042;11.192;2022-09-06T02:51:56;4.63;;;2.00;;
36827;SDS011;22766;48.042;11.192;2022-09-06T02:54:23;1.98;;;1.60;;
36827;SDS011;22766;48.042;11.192;2022-09-06T02:56:50;3.83;;;1.85;;
36827;SDS011;22766;48.042;11.192;2022-09-06T02:59:17;3.63;;;1.60;;
36827;SDS011;22766;48.042;11.192;2022-09-06T03:01:44;5.38;;;1.80;;
36827;SDS011;22766;48.042;11.192;2022-09-06T03:04:11;3.65;;;1.77;;
36827;SDS011;22766;48.042;11.192;2022-09-06T03:06:37;3.33;;;1.73;;
36827;SDS011;22766;48.042;11.192;2022-09-06T03:09:04;2.85;;;1.85;;
36827;SDS011;22766;48.042;11.192;2022-09-06T03:11:31;2.97;;;1.70;;
36827;SDS011;22766;48.042;11.192;2022-09-06T03:13:57;4.15;;;1.80;;
36827;SDS011;22766;48.042;11.192;2022-09-06T03:16:24;3.95;;;2.40;;
36827;SDS011;22766;48.042;11.192;2022-09-06T03:18:51;2.80;;;1.35;;
36827;SDS011;22766;48.042;11.192;2022-09-06T03:21:17;1.92;;;1.40;;
36827;SDS011;22766;48.042;11.192;2022-09-06T03:23:44;2.72;;;1.73;;
36827;SDS011;22766;48.042;11.192;2022-09-06T03:26:11;2.47;;;1.42;;
36827;SDS011;22766;48.042;11.192;2022-09-06T03:28:38;2.60;;;1.90;;
36827;SDS011;22766;48.042;11.192;2022-09-06T03:31:04;1.60;;;1.33;;
36827;SDS011;22766;48.042;11.192;2022-09-06T03:33:31;2.63;;;1.85;;
36827;SDS011;22766;48.042;11.192;2022-09-06T03:35:59;2.80;;;1.60;;
36827;SDS011;22766;48.042;11.192;2022-09-06T03:38:27;2.95;;;1.75;;
36827;SDS011;22766;48.042;11.192;2022-09-06T03:40:55;2.85;;;2.00;;
36827;SDS011;22766;48.042;11.192;2022-09-06T03:43:22;3.38;;;2.10;;
36827;SDS011;22766;48.042;11.192;2022-09-06T03:45:50;3.47;;;1.80;;
36827;SDS011;22766;48.042;11.192;2022-09-06T03:48:19;3.13;;;1.98;;
36827;SDS011;22766;48.042;11.192;2022-09-06T03:50:49;2.80;;;1.90;;
36827;SDS011;22766;48.042;11.192;2022-09-06T03:53:17;4.63;;;1.55;;
36827;SDS011;22766;48.042;11.192;2022-09-06T03:55:44;2.50;;;1.60;;
36827;SDS011;22766;48.042;11.192;2022-09-06T03:58:12;2.58;;;1.63;;
36827;SDS011;22766;48.042;11.192;2022-09-06T04:00:39;3.60;;;1.50;;
36827;SDS011;22766;48.042;11.192;2022-09-06T04:03:06;2.35;;;1.40;;
36827;SDS011;22766;48.042;11.192;2022-09-06T04:05:33;1.98;;;1.52;;
36827;SDS011;22766;48.042;11.192;2022-09-06T04:08:00;3.15;;;1.52;;
36827;SDS011;22766;48.042;11.192;2022-09-06T04:10:27;2.20;;;1.40;;
36827;SDS011;22766;48.042;11.192;2022-09-06T04:12:54;1.90;;;1.33;;
36827;SDS011;22766;48.042;11.192;2022-09-06T04:15:21;1.90;;;1.27;;
36827;SDS011;22766;48.042;11.192;2022-09-06T04:17:48;1.60;;;1.23;;
36827;SDS011;22766;48.042;11.192;2022-09-06T04:20:14;2.30;;;1.45;;
36827;SDS011;22766;48.042;11.192;2022-09-06T04:22:42;1.67;;;1.23;;
36827;SDS011;22766;48.042;11.192;2022-09-06T04:25:09;1.98;;;1.33;;
36827;SDS011;22766;48.042;11.192;2022-09-06T04:27:36;2.65;;;1.45;;
36827;SDS011;22766;48.042;11.192;2022-09-06T04:30:02;2.55;;;1.23;;
36827;SDS011;22766;48.042;11.192;2022-09-06T04:32:29;3.42;;;1.20;;
36827;SDS011;22766;48.042;11.192;2022-09-06T04:34:57;2.72;;;1.20;;
36827;SDS011;22766;48.042;11.192;2022-09-06T04:37:24;2.45;;;1.70;;
36827;SDS011;22766;48.042;11.192;2022-09-06T04:39:51;3.35;;;1.48;;
36827;SDS011;22766;48.042;11.192;2022-09-06T04:42:18;2.92;;;1.48;;
36827;SDS011;22766;48.042;11.192;2022-09-06T04:44:45;4.05;;;1.40;;
36827;SDS011;22766;48.042;11.192;2022-09-06T04:47:12;2.20;;;1.63;;
36827;SDS011;22766;48.042;11.192;2022-09-06T04:49:40;2.88;;;1.27;;
36827;SDS011;22766;48.042;11.192;2022-09-06T04:52:08;1.75;;;1.20;;
36827;SDS011;22766;48.042;11.192;2022-09-06T04:54:35;2.05;;;1.35;;
36827;SDS011;22766;48.042;11.192;2022-09-06T04:57:02;2.78;;;1.67;;
36827;SDS011;22766;48.042;11.192;2022-09-06T04:59:29;2.60;;;1.75;;
36827;SDS011;22766;48.042;11.192;2022-09-06T05:01:55;2.85;;;1.88;;
36827;SDS011;22766;48.042;11.192;2022-09-06T05:04:22;3.22;;;2.05;;
36827;SDS011;22766;48.042;11.192;2022-09-06T05:06:49;4.05;;;2.10;;
36827;SDS011;22766;48.042;11.192;2022-09-06T05:09:24;1.83;;;1.40;;
36827;SDS011;22766;48.042;11.192;2022-09-06T05:11:51;2.42;;;1.77;;
36827;SDS011;22766;48.042;11.192;2022-09-06T05:14:17;3.55;;;1.92;;
36827;SDS011;22766;48.042;11.192;2022-09-06T05:16:44;3.80;;;1.98;;
36827;SDS011;22766;48.042;11.192;2022-09-06T05:19:11;3.63;;;2.13;;
36827;SDS011;22766;48.042;11.192;2022-09-06T05:21:38;2.67;;;2.10;;
36827;SDS011;22766;48.042;11.192;2022-09-06T05:24:05;3.80;;;2.08;;
36827;SDS011;22766;48.042;11.192;2022-09-06T05:26:31;6.03;;;2.60;;
36827;SDS011;22766;48.042;11.192;2022-09-06T05:28:58;3.85;;;2.35;;
36827;SDS011;22766;48.042;11.192;2022-09-06T05:31:29;4.88;;;2.83;;
36827;SDS011;22766;48.042;11.192;2022-09-06T05:33:57;5.20;;;2.45;;
36827;SDS011;22766;48.042;11.192;2022-09-06T05:36:25;2.92;;;2.08;;
36827;SDS011;22766;48.042;11.192;2022-09-06T05:38:53;7.07;;;2.30;;
36827;SDS011;22766;48.042;11.192;2022-09-06T05:41:21;2.60;;;1.75;;
36827;SDS011;22766;48.042;11.192;2022-09-06T05:43:48;2.78;;;1.73;;
36827;SDS011;22766;48.042;11.192;2022-09-06T05:46:15;4.43;;;1.77;;
36827;SDS011;22766;48.042;11.192;2022-09-06T05:48:43;4.32;;;2.22;;
36827;SDS011;22766;48.042;11.192;2022-09-06T05:51:10;2.75;;;1.73;;
36827;SDS011;22766;48.042;11.192;2022-09-06T05:53:40;2.25;;;1.50;;
36827;SDS011;22766;48.042;11.192;2022-09-06T05:56:10;3.70;;;2.22;;
36827;SDS011;22766;48.042;11.192;2022-09-06T05:58:38;3.13;;;1.77;;
36827;SDS011;22766;48.042;11.192;2022-09-06T06:01:27;2.72;;;1.80;;
36827;SDS011;22766;48.042;11.192;2022-09-06T06:06:22;2.75;;;2.00;;
36827;SDS011;22766;48.042;11.192;2022-09-06T06:08:50;3.22;;;2.33;;
36827;SDS011;22766;48.042;11.192;2022-09-06T06:11:17;3.67;;;2.00;;
36827;SDS011;22766;48.042;11.192;2022-09-06T06:13:44;4.20;;;2.30;;
36827;SDS011;22766;48.042;11.192;2022-09-06T06:16:12;3.00;;;1.88;;
36827;SDS011;22766;48.042;11.192;2022-09-06T06:18:40;3.38;;;1.75;;
36827;SDS011;22766;48.042;11.192;2022-09-06T06:23:41;5.72;;;2.10;;
36827;SDS011;22766;48.042;11.192;2022-09-06T06:26:09;2.55;;;1.80;;
36827;SDS011;22766;48.042;11.192;2022-09-06T06:28:38;3.95;;;1.90;;
36827;SDS011;22766;48.042;11.192;2022-09-06T06:31:06;2.88;;;2.00;;
36827;SDS011;22766;48.042;11.192;2022-09-06T06:33:33;3.45;;;1.60;;
36827;SDS011;22766;48.042;11.192;2022-09-06T06:36:03;2.97;;;1.52;;
36827;SDS011;22766;48.042;11.192;2022-09-06T06:38:39;1.90;;;1.35;;
36827;SDS011;22766;48.042;11.192;2022-09-06T06:41:08;1.98;;;1.50;;
36827;SDS011;22766;48.042;11.192;2022-09-06T06:43:37;2.92;;;1.60;;
36827;SDS011;22766;48.042;11.192;2022-09-06T06:46:04;2.88;;;1.63;;
36827;SDS011;22766;48.042;11.192;2022-09-06T06:48:32;7.78;;;1.70;;
36827;SDS011;22766;48.042;11.192;2022-09-06T06:51:00;3.95;;;1.30;;
36827;SDS011;22766;48.042;11.192;2022-09-06T06:53:27;2.25;;;1.30;;
36827;SDS011;22766;48.042;11.192;2022-09-06T06:55:54;2.15;;;1.02;;
36827;SDS011;22766;48.042;11.192;2022-09-06T06:58:20;1.95;;;1.23;;
36827;SDS011;22766;48.042;11.192;2022-09-06T07:00:47;2.15;;;1.40;;
36827;SDS011;22766;48.042;11.192;2022-09-06T07:03:14;5.07;;;1.70;;
36827;SDS011;22766;48.042;11.192;2022-09-06T07:05:40;1.80;;;1.20;;
36827;SDS011;22766;48.042;11.192;2022-09-06T07:08:32;2.80;;;1.35;;
36827;SDS011;22766;48.042;11.192;2022-09-06T07:10:59;2.67;;;1.20;;
36827;SDS011;22766;48.042;11.192;2022-09-06T07:13:26;1.58;;;0.98;;
36827;SDS011;22766;48.042;11.192;2022-09-06T07:18:50;3.90;;;1.70;;
36827;SDS011;22766;48.042;11.192;2022-09-06T07:21:18;3.38;;;1.48;;
36827;SDS011;22766;48.042;11.192;2022-09-06T07:24:07;4.88;;;1.55;;
36827;SDS011;22766;48.042;11.192;2022-09-06T07:26:35;6.03;;;1.27;;
36827;SDS011;22766;48.042;11.192;2022-09-06T07:29:04;3.97;;;1.50;;
36827;SDS011;22766;48.042;11.192;2022-09-06T07:31:32;1.65;;;1.00;;
36827;SDS011;22766;48.042;11.192;2022-09-06T07:34:19;2.47;;;1.70;;
36827;SDS011;22766;48.042;11.192;2022-09-06T07:36:47;4.68;;;1.67;;
36827;SDS011;22766;48.042;11.192;2022-09-06T07:39:16;2.55;;;1.00;;
36827;SDS011;22766;48.042;11.192;2022-09-06T07:41:43;1.77;;;1.38;;
36827;SDS011;22766;48.042;11.192;2022-09-06T07:44:10;3.92;;;1.35;;
36827;SDS011;22766;48.042;11.192;2022-09-06T07:46:36;2.40;;;1.38;;
36827;SDS011;22766;48.042;11.192;2022-09-06T07:49:04;1.67;;;1.00;;
36827;SDS011;22766;48.042;11.192;2022-09-06T07:51:31;2.80;;;1.10;;
36827;SDS011;22766;48.042;11.192;2022-09-06T07:53:59;1.77;;;0.95;;
36827;SDS011;22766;48.042;11.192;2022-09-06T07:56:46;2.90;;;1.02;;
36827;SDS011;22766;48.042;11.192;2022-09-06T07:59:13;3.30;;;0.95;;
36827;SDS011;22766;48.042;11.192;2022-09-06T08:01:40;2.15;;;0.90;;
36827;SDS011;22766;48.042;11.192;2022-09-06T08:04:11;2.47;;;1.02;;
36827;SDS011;22766;48.042;11.192;2022-09-06T08:06:43;2.60;;;1.23;;
36827;SDS011;22766;48.042;11.192;2022-09-06T08:09:33;1.10;;;0.77;;
36827;SDS011;22766;48.042;11.192;2022-09-06T08:12:00;3.30;;;0.80;;
36827;SDS011;22766;48.042;11.192;2022-09-06T08:14:32;1.27;;;0.70;;
36827;SDS011;22766;48.042;11.192;2022-09-06T08:17:03;3.45;;;0.80;;
36827;SDS011;22766;48.042;11.192;2022-09-06T08:19:30;1.35;;;0.80;;
36827;SDS011;22766;48.042;11.192;2022-09-06T08:21:56;2.38;;;1.00;;
36827;SDS011;22766;48.042;11.192;2022-09-06T08:24:23;1.10;;;0.77;;
36827;SDS011;22766;48.042;11.192;2022-09-06T08:26:50;2.22;;;0.68;;
36827;SDS011;22766;48.042;11.192;2022-09-06T08:29:17;1.60;;;0.60;;
36827;SDS011;22766;48.042;11.192;2022-09-06T08:31:45;4.15;;;0.85;;
36827;SDS011;22766;48.042;11.192;2022-09-06T08:34:12;1.48;;;0.80;;
36827;SDS011;22766;48.042;11.192;2022-09-06T08:36:39;1.73;;;0.85;;
36827;SDS011;22766;48.042;11.192;2022-09-06T08:39:07;2.55;;;0.55;;
36827;SDS011;22766;48.042;11.192;2022-09-06T08:41:52;1.65;;;0.70;;
36827;SDS011;22766;48.042;11.192;2022-09-06T08:44:32;1.13;;;0.75;;
36827;SDS011;22766;48.042;11.192;2022-09-06T08:47:22;1.25;;;1.15;;
36827;SDS011;22766;48.042;11.192;2022-09-06T08:55:44;1.40;;;0.50;;
36827;SDS011;22766;48.042;11.192;2022-09-06T09:00:56;0.70;;;0.45;;
36827;SDS011;22766;48.042;11.192;2022-09-06T09:03:31;1.52;;;0.57;;
36827;SDS011;22766;48.042;11.192;2022-09-06T09:06:02;1.40;;;0.50;;
36827;SDS011;22766;48.042;11.192;2022-09-06T09:08:33;1.42;;;0.73;;
36827;SDS011;22766;48.042;11.192;2022-09-06T09:11:14;1.70;;;0.60;;
36827;SDS011;22766;48.042;11.192;2022-09-06T09:16:41;1.27;;;0.70;;
36827;SDS011;22766;48.042;11.192;2022-09-06T09:19:08;5.32;;;0.60;;
36827;SDS011;22766;48.042;11.192;2022-09-06T09:21:35;2.42;;;0.40;;
36827;SDS011;22766;48.042;11.192;2022-09-06T09:24:04;1.73;;;0.60;;
36827;SDS011;22766;48.042;11.192;2022-09-06T09:26:50;3.78;;;0.60;;
36827;SDS011;22766;48.042;11.192;2022-09-06T09:29:22;0.47;;;0.43;;
36827;SDS011;22766;48.042;11.192;2022-09-06T09:31:54;4.30;;;0.55;;
36827;SDS011;22766;48.042;11.192;2022-09-06T09:34:37;0.80;;;0.40;;
36827;SDS011;22766;48.042;11.192;2022-09-06T09:39:58;1.58;;;0.55;;
36827;SDS011;22766;48.042;11.192;2022-09-06T09:42:35;1.35;;;0.65;;
36827;SDS011;22766;48.042;11.192;2022-09-06T09:45:04;0.70;;;0.47;;
36827;SDS011;22766;48.042;11.192;2022-09-06T09:47:54;2.78;;;0.80;;
36827;SDS011;22766;48.042;11.192;2022-09-06T09:53:19;3.95;;;0.60;;
36827;SDS011;22766;48.042;11.192;2022-09-06T09:55:48;1.27;;;0.40;;
36827;SDS011;22766;48.042;11.192;2022-09-06T10:04:03;1.38;;;0.40;;
36827;SDS011;22766;48.042;11.192;2022-09-06T10:06:52;1.38;;;0.55;;
36827;SDS011;22766;48.042;11.192;2022-09-06T10:09:33;1.90;;;0.50;;
36827;SDS011;22766;48.042;11.192;2022-09-06T10:12:02;0.98;;;0.60;;
36827;SDS011;22766;48.042;11.192;2022-09-06T10:17:05;0.75;;;0.43;;
36827;SDS011;22766;48.042;11.192;2022-09-06T10:22:06;1.17;;;0.50;;
36827;SDS011;22766;48.042;11.192;2022-09-06T10:24:53;1.20;;;0.45;;
36827;SDS011;22766;48.042;11.192;2022-09-06T10:27:25;2.15;;;0.47;;
36827;SDS011;22766;48.042;11.192;2022-09-06T10:29:54;0.73;;;0.50;;
36827;SDS011;22766;48.042;11.192;2022-09-06T10:35:04;2.03;;;0.60;;
36827;SDS011;22766;48.042;11.192;2022-09-06T10:37:47;2.97;;;0.50;;
36827;SDS011;22766;48.042;11.192;2022-09-06T10:40:38;0.73;;;0.30;;
36827;SDS011;22766;48.042;11.192;2022-09-06T10:43:16;4.15;;;0.63;;
36827;SDS011;22766;48.042;11.192;2022-09-06T10:45:57;1.67;;;0.60;;
36827;SDS011;22766;48.042;11.192;2022-09-06T10:48:31;1.35;;;0.57;;
36827;SDS011;22766;48.042;11.192;2022-09-06T10:56:43;2.05;;;0.75;;
36827;SDS011;22766;48.042;11.192;2022-09-06T10:59:58;1.13;;;0.30;;
36827;SDS011;22766;48.042;11.192;2022-09-06T11:05:11;1.48;;;0.50;;
36827;SDS011;22766;48.042;11.192;2022-09-06T11:08:03;6.65;;;1.10;;
36827;SDS011;22766;48.042;11.192;2022-09-06T11:10:56;0.95;;;0.63;;
36827;SDS011;22766;48.042;11.192;2022-09-06T11:13:24;1.85;;;1.02;;
36827;SDS011;22766;48.042;11.192;2022-09-06T11:29:49;1.65;;;0.60;;
36827;SDS011;22766;48.042;11.192;2022-09-06T11:32:32;1.45;;;0.70;;
36827;SDS011;22766;48.042;11.192;2022-09-06T11:35:04;4.15;;;0.70;;
36827;SDS011;22766;48.042;11.192;2022-09-06T11:37:36;1.95;;;0.60;;
36827;SDS011;22766;48.042;11.192;2022-09-06T11:45:20;2.05;;;0.65;;
36827;SDS011;22766;48.042;11.192;2022-09-06T11:47:48;2.60;;;0.50;;
36827;SDS011;22766;48.042;11.192;2022-09-06T11:53:00;2.80;;;0.70;;
36827;SDS011;22766;48.042;11.192;2022-09-06T11:55:41;5.10;;;0.73;;
36827;SDS011;22766;48.042;11.192;2022-09-06T11:58:10;2.85;;;0.98;;
36827;SDS011;22766;48.042;11.192;2022-09-06T12:09:00;4.40;;;1.17;;
36827;SDS011;22766;48.042;11.192;2022-09-06T12:11:47;1.63;;;0.70;;
36827;SDS011;22766;48.042;11.192;2022-09-06T12:24:57;2.90;;;0.70;;
36827;SDS011;22766;48.042;11.192;2022-09-06T12:29:59;3.97;;;0.98;;
36827;SDS011;22766;48.042;11.192;2022-09-06T12:32:32;5.63;;;1.52;;
36827;SDS011;22766;48.042;11.192;2022-09-06T12:35:14;6.20;;;1.27;;
36827;SDS011;22766;48.042;11.192;2022-09-06T12:38:05;4.95;;;1.00;;
36827;SDS011;22766;48.042;11.192;2022-09-06T12:40:38;5.13;;;1.00;;
36827;SDS011;22766;48.042;11.192;2022-09-06T12:43:11;4.95;;;1.35;;
36827;SDS011;22766;48.042;11.192;2022-09-06T12:45:43;3.85;;;0.80;;
36827;SDS011;22766;48.042;11.192;2022-09-06T12:48:12;6.45;;;0.98;;
36827;SDS011;22766;48.042;11.192;2022-09-06T12:51:03;2.90;;;1.10;;
36827;SDS011;22766;48.042;11.192;2022-09-06T12:53:31;4.57;;;0.85;;
36827;SDS011;22766;48.042;11.192;2022-09-06T12:56:03;2.75;;;0.75;;
36827;SDS011;22766;48.042;11.192;2022-09-06T12:58:33;6.03;;;1.63;;
36827;SDS011;22766;48.042;11.192;2022-09-06T13:01:22;2.78;;;0.70;;
36827;SDS011;22766;48.042;11.192;2022-09-06T13:09:01;6.60;;;1.00;;
36827;SDS011;22766;48.042;11.192;2022-09-06T13:11:33;2.40;;;0.88;;
36827;SDS011;22766;48.042;11.192;2022-09-06T13:14:25;7.03;;;0.77;;
36827;SDS011;22766;48.042;11.192;2022-09-06T13:16:53;2.28;;;0.80;;
36827;SDS011;22766;48.042;11.192;2022-09-06T13:21:58;3.58;;;0.80;;
36827;SDS011;22766;48.042;11.192;2022-09-06T13:26:59;9.73;;;0.98;;
36827;SDS011;22766;48.042;11.192;2022-09-06T13:29:29;3.70;;;0.70;;
36827;SDS011;22766;48.042;11.192;2022-09-06T13:31:57;6.60;;;1.10;;
36827;SDS011;22766;48.042;11.192;2022-09-06T13:37:01;4.93;;;1.15;;
36827;SDS011;22766;48.042;11.192;2022-09-06T13:39:32;7.28;;;1.00;;
36827;SDS011;22766;48.042;11.192;2022-09-06T13:42:05;8.25;;;0.70;;
36827;SDS011;22766;48.042;11.192;2022-09-06T13:44:34;3.92;;;1.17;;
36827;SDS011;22766;48.042;11.192;2022-09-06T13:47:03;6.53;;;0.70;;
36827;SDS011;22766;48.042;11.192;2022-09-06T13:49:31;7.00;;;0.80;;
36827;SDS011;22766;48.042;11.192;2022-09-06T13:51:59;4.03;;;0.82;;
36827;SDS011;22766;48.042;11.192;2022-09-06T13:54:30;5.45;;;0.80;;
36827;SDS011;22766;48.042;11.192;2022-09-06T13:56:58;10.57;;;1.48;;
36827;SDS011;22766;48.042;11.192;2022-09-06T13:59:27;5.70;;;0.90;;
36827;SDS011;22766;48.042;11.192;2022-09-06T14:01:59;4.10;;;1.25;;
36827;SDS011;22766;48.042;11.192;2022-09-06T14:04:27;10.30;;;1.63;;
36827;SDS011;22766;48.042;11.192;2022-09-06T14:06:54;3.75;;;1.13;;
36827;SDS011;22766;48.042;11.192;2022-09-06T14:09:22;6.18;;;0.90;;
36827;SDS011;22766;48.042;11.192;2022-09-06T14:11:49;4.47;;;1.20;;
36827;SDS011;22766;48.042;11.192;2022-09-06T14:14:16;6.05;;;0.93;;
36827;SDS011;22766;48.042;11.192;2022-09-06T14:16:44;6.72;;;1.15;;
36827;SDS011;22766;48.042;11.192;2022-09-06T14:19:11;5.88;;;1.30;;
36827;SDS011;22766;48.042;11.192;2022-09-06T14:21:38;5.40;;;1.00;;
36827;SDS011;22766;48.042;11.192;2022-09-06T14:24:05;7.68;;;1.15;;
36827;SDS011;22766;48.042;11.192;2022-09-06T14:26:32;3.80;;;0.95;;
36827;SDS011;22766;48.042;11.192;2022-09-06T14:29:01;5.63;;;1.10;;
36827;SDS011;22766;48.042;11.192;2022-09-06T14:31:29;2.63;;;0.88;;
36827;SDS011;22766;48.042;11.192;2022-09-06T14:33:58;5.88;;;1.40;;
36827;SDS011;22766;48.042;11.192;2022-09-06T14:36:26;4.65;;;1.13;;
36827;SDS011;22766;48.042;11.192;2022-09-06T14:38:57;4.60;;;1.13;;
36827;SDS011;22766;48.042;11.192;2022-09-06T14:41:25;7.35;;;1.25;;
36827;SDS011;22766;48.042;11.192;2022-09-06T14:43:53;3.38;;;1.00;;
36827;SDS011;22766;48.042;11.192;2022-09-06T14:46:23;4.47;;;0.95;;
36827;SDS011;22766;48.042;11.192;2022-09-06T14:49:02;2.80;;;1.08;;
36827;SDS011;22766;48.042;11.192;2022-09-06T14:51:33;3.13;;;1.05;;
36827;SDS011;22766;48.042;11.192;2022-09-06T14:54:01;7.72;;;1.33;;
36827;SDS011;22766;48.042;11.192;2022-09-06T14:56:31;2.80;;;1.23;;
36827;SDS011;22766;48.042;11.192;2022-09-06T14:58:57;6.25;;;1.20;;
36827;SDS011;22766;48.042;11.192;2022-09-06T15:01:29;3.70;;;0.95;;
36827;SDS011;22766;48.042;11.192;2022-09-06T15:04:03;5.70;;;1.48;;
36827;SDS011;22766;48.042;11.192;2022-09-06T15:06:32;3.60;;;0.80;;
36827;SDS011;22766;48.042;11.192;2022-09-06T15:09:00;2.97;;;1.00;;
36827;SDS011;22766;48.042;11.192;2022-09-06T15:11:34;4.57;;;1.10;;
36827;SDS011;22766;48.042;11.192;2022-09-06T15:14:03;4.18;;;1.23;;
36827;SDS011;22766;48.042;11.192;2022-09-06T15:16:33;5.63;;;1.40;;
36827;SDS011;22766;48.042;11.192;2022-09-06T15:19:01;4.32;;;0.90;;
36827;SDS011;22766;48.042;11.192;2022-09-06T15:21:28;4.80;;;1.60;;
36827;SDS011;22766;48.042;11.192;2022-09-06T15:23:56;6.75;;;1.33;;
36827;SDS011;22766;48.042;11.192;2022-09-06T15:26:24;3.55;;;1.38;;
36827;SDS011;22766;48.042;11.192;2022-09-06T15:28:50;3.22;;;0.80;;
36827;SDS011;22766;48.042;11.192;2022-09-06T15:31:17;6.97;;;1.05;;
36827;SDS011;22766;48.042;11.192;2022-09-06T15:33:45;4.63;;;1.35;;
36827;SDS011;22766;48.042;11.192;2022-09-06T15:36:14;2.85;;;1.00;;
36827;SDS011;22766;48.042;11.192;2022-09-06T15:38:42;7.22;;;1.58;;
36827;SDS011;22766;48.042;11.192;2022-09-06T15:41:22;5.95;;;1.48;;
36827;SDS011;22766;48.042;11.192;2022-09-06T15:44:00;6.75;;;1.45;;
36827;SDS011;22766;48.042;11.192;2022-09-06T15:49:05;5.82;;;1.77;;
36827;SDS011;22766;48.042;11.192;2022-09-06T15:51:33;6.80;;;1.35;;
36827;SDS011;22766;48.042;11.192;2022-09-06T15:54:02;9.07;;;1.20;;
36827;SDS011;22766;48.042;11.192;2022-09-06T15:56:29;6.53;;;1.10;;
36827;SDS011;22766;48.042;11.192;2022-09-06T15:58:56;4.35;;;0.98;;
36827;SDS011;22766;48.042;11.192;2022-09-06T16:01:24;3.90;;;0.88;;
36827;SDS011;22766;48.042;11.192;2022-09-06T16:03:53;7.53;;;1.27;;
36827;SDS011;22766;48.042;11.192;2022-09-06T16:06:25;3.75;;;0.98;;
36827;SDS011;22766;48.042;11.192;2022-09-06T16:08:58;6.15;;;1.35;;
36827;SDS011;22766;48.042;11.192;2022-09-06T16:11:27;3.75;;;1.23;;
36827;SDS011;22766;48.042;11.192;2022-09-06T16:13:55;5.93;;;1.38;;
36827;SDS011;22766;48.042;11.192;2022-09-06T16:16:22;8.13;;;0.90;;
36827;SDS011;22766;48.042;11.192;2022-09-06T16:18:49;7.43;;;1.17;;
36827;SDS011;22766;48.042;11.192;2022-09-06T16:21:21;9.75;;;1.27;;
36827;SDS011;22766;48.042;11.192;2022-09-06T16:23:53;7.32;;;1.10;;
36827;SDS011;22766;48.042;11.192;2022-09-06T16:26:23;4.97;;;1.10;;
36827;SDS011;22766;48.042;11.192;2022-09-06T16:28:51;5.30;;;1.48;;
36827;SDS011;22766;48.042;11.192;2022-09-06T16:31:19;4.82;;;1.55;;
36827;SDS011;22766;48.042;11.192;2022-09-06T16:33:47;6.97;;;1.50;;
36827;SDS011;22766;48.042;11.192;2022-09-06T16:36:15;7.85;;;1.83;;
36827;SDS011;22766;48.042;11.192;2022-09-06T16:38:43;2.20;;;1.05;;
36827;SDS011;22766;48.042;11.192;2022-09-06T16:41:15;4.85;;;1.20;;
36827;SDS011;22766;48.042;11.192;2022-09-06T16:46:27;8.70;;;1.55;;
36827;SDS011;22766;48.042;11.192;2022-09-06T16:48:55;7.00;;;1.73;;
36827;SDS011;22766;48.042;11.192;2022-09-06T16:51:26;5.60;;;1.08;;
36827;SDS011;22766;48.042;11.192;2022-09-06T16:53:53;2.63;;;1.08;;
36827;SDS011;22766;48.042;11.192;2022-09-06T16:56:24;6.40;;;0.90;;
36827;SDS011;22766;48.042;11.192;2022-09-06T16:58:59;4.97;;;1.30;;
36827;SDS011;22766;48.042;11.192;2022-09-06T17:01:27;8.13;;;1.58;;
36827;SDS011;22766;48.042;11.192;2022-09-06T17:03:55;3.33;;;1.10;;
36827;SDS011;22766;48.042;11.192;2022-09-06T17:06:23;4.32;;;1.30;;
36827;SDS011;22766;48.042;11.192;2022-09-06T17:08:50;2.13;;;0.98;;
36827;SDS011;22766;48.042;11.192;2022-09-06T17:11:18;6.57;;;1.40;;
36827;SDS011;22766;48.042;11.192;2022-09-06T17:13:48;3.85;;;1.33;;
36827;SDS011;22766;48.042;11.192;2022-09-06T17:16:16;7.85;;;1.60;;
36827;SDS011;22766;48.042;11.192;2022-09-06T17:19:02;2.97;;;1.00;;
36827;SDS011;22766;48.042;11.192;2022-09-06T17:21:30;7.38;;;1.17;;
36827;SDS011;22766;48.042;11.192;2022-09-06T17:23:57;6.57;;;1.52;;
36827;SDS011;22766;48.042;11.192;2022-09-06T17:26:27;6.35;;;1.13;;
36827;SDS011;22766;48.042;11.192;2022-09-06T17:28:54;6.85;;;1.77;;
36827;SDS011;22766;48.042;11.192;2022-09-06T17:31:22;5.20;;;1.10;;